Whitestone, New York
Current Conditions -  °F | °C
As of 2:51 PM on Thursday 23 Oct 2014 (Local Time) from KLGA Reporting Station
Moderate Rain Moderate Rain  
Wind Chill: 51°   Ceiling: 1600
Heat Index: 51°   Visibility: 3mi
Dew Point: 47°   Wind: 17mph
Humidity: 86%   Direction: 340°NNW
Pressure: 29.7"   Gusts: 25mph
Location:  40.79°N, 73.82°W
Report Text: KLGA 231851Z 34015G22KT 3SM RA BR BKN016 BKN020 OVC036 11/08 A2970 RMK AO2 SLP056 P0008 T01060083
Loading
Personal Weather Stations






























Interactive Weather Map
Tropical Storm Tracking
New forecast layout! Learn more

10-Day Weather Forecast

Advertisements
Track Severe Weather on mobile